Time;durP1;ratioP1;P1;durP2;ratioP2;P2;SDS_P1;SDS_P2;PMS_P1;PMS_P2;Temp;Humidity;BMP_temperature;BMP_pressure;BME280_temperature;BME280_humidity;BME280_pressure;Samples;Min_cycle;Max_cycle;Signal;HPM_P1;HPM_P2
2022/12/15 00:40:04;;;;;;;33.33;16.90;;;0.80;54.90;;;;;;5065328;28;20071;-53
2022/12/15 00:42:31;;;;;;;32.03;16.58;;;0.80;54.90;;;;;;5063815;28;20056;-53
2022/12/15 00:44:58;;;;;;;32.90;16.35;;;0.80;55.00;;;;;;5055541;28;20067;-51
2022/12/15 00:47:25;;;;;;;36.63;15.98;;;0.80;55.10;;;;;;5059871;28;20411;-53
2022/12/15 01:20:17;;;;;;;33.72;16.73;;;1.10;55.20;;;;;;5068432;28;20064;-53
2022/12/15 01:22:48;;;;;;;34.85;17.55;;;1.10;55.30;;;;;;5061318;28;20055;-51
2022/12/15 01:25:17;;;;;;;32.17;15.57;;;1.20;55.30;;;;;;5059522;28;20421;-53
2022/12/15 01:27:44;;;;;;;29.58;15.50;;;1.20;55.30;;;;;;5062029;28;20056;-52
2022/12/15 01:30:14;;;;;;;29.17;15.23;;;1.20;55.30;;;;;;5060395;28;20472;-52
2022/12/15 01:32:41;;;;;;;28.75;15.80;;;1.30;55.30;;;;;;5060636;28;20056;-48
2022/12/15 01:35:10;;;;;;;31.90;16.60;;;1.30;55.30;;;;;;5059259;28;20535;-49
2022/12/15 01:37:38;;;;;;;29.42;15.85;;;1.30;55.30;;;;;;5060004;28;20060;-51
2022/12/15 01:42:56;;;;;;;34.92;16.63;;;1.30;55.30;;;;;;5062142;28;20063;-51
2022/12/15 01:45:49;;;;;;;24.80;13.10;;;1.30;55.20;;;;;;5062056;28;20052;-52
2022/12/15 01:48:26;;;;;;;37.27;14.93;;;1.40;55.30;;;;;;5059480;28;20056;-53
2022/12/15 01:51:01;;;;;;;28.33;14.18;;;1.40;55.20;;;;;;5058984;28;20053;-52
2022/12/15 01:53:32;;;;;;;33.67;17.83;;;1.40;55.20;;;;;;5059973;28;20059;-52
2022/12/15 01:56:03;;;;;;;31.55;16.98;;;1.40;55.20;;;;;;5062820;28;20434;-48
2022/12/15 01:58:31;;;;;;;32.50;16.38;;;1.40;55.20;;;;;;5059657;28;20048;-51
2022/12/15 02:01:00;;;;;;;43.17;19.63;;;1.40;55.20;;;;;;5054607;28;20052;-51
2022/12/15 02:03:28;;;;;;;40.85;19.02;;;1.40;55.20;;;;;;5060575;28;20053;-50
2022/12/15 02:05:56;;;;;;;44.63;22.00;;;1.40;55.20;;;;;;5049271;28;20408;-50
2022/12/15 02:08:23;;;;;;;36.58;18.05;;;1.40;55.20;;;;;;5061213;28;20492;-52
2022/12/15 02:11:04;;;;;;;33.42;17.10;;;1.40;55.00;;;;;;5056342;28;20063;-51
2022/12/15 02:13:40;;;;;;;30.42;15.25;;;1.40;54.90;;;;;;5057983;28;20044;-52
2022/12/15 02:16:17;;;;;;;31.80;15.30;;;1.40;54.90;;;;;;5056944;28;20511;-51
2022/12/15 02:18:56;;;;;;;34.10;16.85;;;1.40;54.90;;;;;;5060008;28;20110;-53
2022/12/15 02:21:29;;;;;;;31.02;16.40;;;1.40;55.00;;;;;;5060080;28;20059;-53
2022/12/15 02:24:33;;;;;;;32.83;17.02;;;1.40;55.10;;;;;;5057169;28;20056;-53
2022/12/15 02:27:35;;;;;;;33.95;16.48;;;1.40;55.10;;;;;;5056720;28;21374;-51
2022/12/15 02:30:22;;;;;;;38.08;17.92;;;1.40;55.10;;;;;;5041540;28;20049;-51
2022/12/15 02:33:01;;;;;;;35.03;16.92;;;1.50;55.10;;;;;;5060762;28;20059;-52
2022/12/15 02:35:36;;;;;;;37.83;18.40;;;1.40;54.90;;;;;;5052952;28;20451;-51
2022/12/15 02:38:03;;;;;;;31.95;16.85;;;1.40;54.90;;;;;;5050527;28;20060;-53
2022/12/15 02:40:30;;;;;;;31.33;15.63;;;1.50;55.00;;;;;;5057332;28;20048;-49
2022/12/15 02:43:00;;;;;;;32.65;17.38;;;1.40;55.00;;;;;;5061469;28;20048;-53
2022/12/15 02:45:34;;;;;;;37.25;17.25;;;1.50;55.00;;;;;;5062091;28;20052;-53
2022/12/15 02:48:12;;;;;;;35.45;18.48;;;1.50;55.10;;;;;;5055550;28;20057;-52
2022/12/15 02:50:51;;;;;;;36.40;19.20;;;1.50;55.10;;;;;;5057540;28;20392;-52
2022/12/15 02:53:45;;;;;;;37.47;17.70;;;1.50;55.00;;;;;;5060159;28;20507;-53
2022/12/15 02:56:18;;;;;;;33.67;17.10;;;1.50;55.00;;;;;;5051575;28;20115;-51
2022/12/15 02:58:48;;;;;;;;;;;1.50;54.90;;;;;;5057135;28;20048;-52
2022/12/15 03:01:22;;;;;;;34.15;17.65;;;1.50;55.00;;;;;;5057109;28;19920;-51
2022/12/15 03:03:51;;;;;;;31.55;16.60;;;1.50;54.90;;;;;;5059257;28;20057;-51
2022/12/15 03:06:19;;;;;;;38.00;19.27;;;1.50;54.80;;;;;;5057971;28;20504;-46
2022/12/15 03:08:46;;;;;;;40.53;19.33;;;1.50;54.80;;;;;;5054971;28;20048;-53
2022/12/15 03:11:14;;;;;;;28.88;15.82;;;1.50;54.70;;;;;;5060511;28;20048;-50
2022/12/15 03:13:41;;;;;;;42.20;18.85;;;1.50;54.60;;;;;;5058580;28;20052;-52
2022/12/15 03:16:09;;;;;;;36.30;17.77;;;1.50;54.60;;;;;;5044823;28;20079;-52
2022/12/15 03:18:37;;;;;;;36.85;19.33;;;1.40;54.60;;;;;;5059451;28;20507;-52
2022/12/15 03:21:05;;;;;;;36.47;18.02;;;1.40;54.60;;;;;;5059303;28;20060;-48
2022/12/15 03:23:32;;;;;;;34.65;17.42;;;1.40;54.60;;;;;;5063496;28;20063;-52
2022/12/15 03:26:00;;;;;;;36.55;18.65;;;1.40;54.60;;;;;;5064688;28;20416;-52
2022/12/15 03:28:27;;;;;;;31.73;17.42;;;1.40;54.70;;;;;;5063654;28;20515;-52
2022/12/15 03:30:55;;;;;;;35.80;18.67;;;1.40;54.70;;;;;;5065039;28;20393;-50
2022/12/15 03:33:22;;;;;;;38.25;19.17;;;1.40;54.70;;;;;;5059416;28;20407;-52
2022/12/15 03:35:51;;;;;;;48.03;21.45;;;1.40;54.80;;;;;;5054588;28;20453;-52
2022/12/15 03:38:18;;;;;;;38.60;19.52;;;1.40;54.70;;;;;;5057962;28;20052;-47
2022/12/15 03:40:45;;;;;;;45.63;20.92;;;1.40;54.70;;;;;;5063698;28;20075;-52
2022/12/15 03:43:13;;;;;;;41.28;19.75;;;1.40;54.70;;;;;;5063864;28;20052;-49
2022/12/15 03:45:40;;;;;;;41.30;20.05;;;1.40;54.70;;;;;;5065524;28;20056;-49
2022/12/15 03:48:07;;;;;;;38.17;18.58;;;1.40;54.70;;;;;;5062378;28;20492;-53
2022/12/15 03:50:34;;;;;;;36.53;17.70;;;1.40;54.70;;;;;;5060457;28;20049;-52
2022/12/15 03:53:04;;;;;;;41.58;20.45;;;1.40;54.60;;;;;;5060735;28;20415;-52
2022/12/15 03:55:32;;;;;;;52.25;22.58;;;1.40;54.60;;;;;;5063328;28;20420;-53
2022/12/15 03:57:59;;;;;;;38.08;19.23;;;1.40;54.60;;;;;;5065565;28;20071;-53
2022/12/15 04:00:27;;;;;;;39.50;19.73;;;1.40;54.50;;;;;;5062980;28;20056;-52
2022/12/15 04:02:54;;;;;;;37.58;18.63;;;1.30;54.40;;;;;;5062087;28;20126;-52
2022/12/15 04:05:25;;;;;;;37.20;19.48;;;1.30;54.50;;;;;;5057802;28;20048;-47
2022/12/15 04:07:52;;;;;;;42.70;20.02;;;1.30;54.50;;;;;;5062595;28;20059;-52
2022/12/15 04:10:22;;;;;;;40.80;20.00;;;1.40;54.60;;;;;;5062444;28;20060;-44
2022/12/15 04:12:49;;;;;;;38.20;19.55;;;1.30;54.60;;;;;;5063647;28;20389;-46
2022/12/15 04:15:16;;;;;;;43.03;20.10;;;1.30;54.60;;;;;;5057932;28;20412;-46
2022/12/15 04:17:43;;;;;;;42.90;21.50;;;1.30;54.60;;;;;;5063946;28;20048;-43
2022/12/15 04:20:11;;;;;;;41.42;21.67;;;1.30;54.60;;;;;;5063317;28;20063;-46
2022/12/15 04:22:40;;;;;;;43.40;20.95;;;1.30;54.60;;;;;;5060433;28;20044;-46
2022/12/15 05:34:06;;;;;;;39.90;20.95;;;1.40;54.60;;;;;;5022112;28;20792;-87
2022/12/15 05:36:34;;;;;;;39.22;18.90;;;1.40;54.60;;;;;;5019732;28;20057;-87
2022/12/15 05:39:01;;;;;;;37.40;18.25;;;1.40;54.60;;;;;;5021509;28;20432;-89
2022/12/15 05:41:29;;;;;;;38.85;19.95;;;1.40;54.60;;;;;;5020382;28;20049;-87
2022/12/15 05:43:56;;;;;;;41.47;20.88;;;1.40;54.60;;;;;;5017179;28;20064;-87
2022/12/15 05:46:24;;;;;;;35.63;18.33;;;1.40;54.50;;;;;;5020422;28;20554;-89
2022/12/15 05:48:51;;;;;;;73.88;32.40;;;1.40;54.50;;;;;;5015639;28;20059;-88
2022/12/15 05:51:20;;;;;;;143.15;56.55;;;1.40;54.50;;;;;;5013931;28;20075;-87
2022/12/15 05:53:49;;;;;;;68.63;29.13;;;1.40;54.50;;;;;;5016492;28;20080;-87
2022/12/15 05:56:16;;;;;;;43.72;22.05;;;1.40;54.50;;;;;;5016740;28;20050;-87
2022/12/15 05:58:44;;;;;;;37.20;19.38;;;1.40;54.50;;;;;;5021637;28;20057;-87
2022/12/15 06:01:13;;;;;;;37.78;18.60;;;1.40;54.50;;;;;;5016212;28;20680;-88
2022/12/15 06:03:41;;;;;;;37.70;19.55;;;1.40;54.50;;;;;;5017829;28;20058;-87
2022/12/15 06:06:10;;;;;;;34.50;19.23;;;1.40;54.50;;;;;;5019396;28;20068;-87
2022/12/15 06:08:41;;;;;;;33.90;17.30;;;1.40;54.50;;;;;;5019419;28;20048;-88
2022/12/15 06:11:11;;;;;;;35.83;19.55;;;1.40;54.40;;;;;;5019582;28;20049;-87
2022/12/15 06:13:38;;;;;;;32.45;17.50;;;1.40;54.40;;;;;;5020629;28;20582;-87
2022/12/15 06:16:07;;;;;;;40.03;18.10;;;1.40;54.30;;;;;;5017850;28;20050;-87
2022/12/15 06:18:36;;;;;;;33.10;16.85;;;1.40;54.30;;;;;;5020977;28;20056;-87
2022/12/15 06:21:08;;;;;;;36.70;18.27;;;1.40;54.20;;;;;;5018413;28;20508;-87
2022/12/15 06:23:35;;;;;;;37.33;16.98;;;1.40;54.20;;;;;;5020486;28;20412;-87
2022/12/15 06:26:11;;;;;;;32.58;16.98;;;1.40;54.20;;;;;;5019593;28;20053;-87
2022/12/15 06:28:39;;;;;;;32.72;17.83;;;1.30;54.20;;;;;;5014530;28;20670;-87
2022/12/15 06:31:11;;;;;;;38.78;19.83;;;1.30;54.20;;;;;;5018601;28;20147;-87
2022/12/15 06:33:40;;;;;;;29.33;15.75;;;1.30;54.20;;;;;;5016511;28;20390;-87
2022/12/15 06:36:11;;;;;;;38.10;18.52;;;1.30;54.10;;;;;;5019296;28;20483;-87
2022/12/15 06:38:42;;;;;;;40.92;19.48;;;1.30;54.10;;;;;;5013302;28;20500;-87
2022/12/15 06:41:13;;;;;;;35.78;17.13;;;1.30;54.10;;;;;;5012412;28;20049;-87
2022/12/15 06:43:41;;;;;;;40.10;18.98;;;1.30;54.00;;;;;;5016251;28;20056;-87
2022/12/15 06:46:09;;;;;;;35.50;17.55;;;1.30;54.00;;;;;;5017283;28;20146;-87
2022/12/15 06:48:37;;;;;;;32.15;17.42;;;1.30;54.00;;;;;;5015126;28;20060;-87
2022/12/15 06:51:06;;;;;;;31.02;17.25;;;1.30;54.00;;;;;;5019377;28;20385;-87
2022/12/15 06:53:37;;;;;;;38.53;18.98;;;1.30;54.00;;;;;;5019138;28;20056;-87
2022/12/15 06:56:08;;;;;;;34.53;17.45;;;1.20;54.00;;;;;;5024288;28;20057;-87
2022/12/15 06:58:37;;;;;;;34.05;17.67;;;1.30;54.00;;;;;;5024758;28;20053;-88
2022/12/15 07:01:06;;;;;;;42.58;21.15;;;1.20;54.00;;;;;;5021886;28;20053;-88
2022/12/15 07:03:35;;;;;;;36.83;19.30;;;1.20;54.00;;;;;;5021853;28;20496;-87
2022/12/15 07:06:04;;;;;;;39.72;18.85;;;1.20;53.90;;;;;;5020408;28;20056;-87
2022/12/15 07:08:32;;;;;;;34.92;18.23;;;1.10;53.90;;;;;;5023990;28;20052;-87
2022/12/15 07:11:02;;;;;;;38.45;20.33;;;1.20;54.00;;;;;;5027456;28;20048;-87
2022/12/15 07:13:29;;;;;;;42.42;19.48;;;1.10;54.00;;;;;;5016247;28;20049;-87
2022/12/15 07:16:00;;;;;;;37.35;18.67;;;1.10;54.00;;;;;;5021043;28;20508;-87
2022/12/15 07:18:28;;;;;;;40.55;20.58;;;1.10;54.00;;;;;;5024044;28;20049;-90
2022/12/15 07:20:55;;;;;;;34.47;17.75;;;1.10;53.90;;;;;;5025129;28;20135;-87
2022/12/15 07:23:23;;;;;;;35.35;18.25;;;1.10;53.90;;;;;;5026470;28;20045;-87
2022/12/15 07:25:50;;;;;;;38.05;19.17;;;1.10;54.00;;;;;;5022821;28;20053;-87
2022/12/15 07:28:18;;;;;;;39.38;18.45;;;1.10;53.90;;;;;;5025769;28;20049;-87
2022/12/15 07:30:45;;;;;;;34.90;18.13;;;1.10;53.90;;;;;;5023966;28;20511;-87
2022/12/15 07:33:14;;;;;;;36.17;18.55;;;1.10;53.80;;;;;;5024757;28;20057;-88
2022/12/15 07:35:42;;;;;;;68.57;28.67;;;1.00;53.70;;;;;;5025078;28;20049;-86
2022/12/15 07:38:09;;;;;;;54.17;24.77;;;1.00;53.60;;;;;;5025961;28;20067;-88
2022/12/15 07:40:37;;;;;;;41.42;19.88;;;1.00;53.60;;;;;;5023236;28;20072;-86
2022/12/15 07:43:05;;;;;;;36.10;18.73;;;1.00;53.70;;;;;;5021204;28;20058;-86
2022/12/15 07:45:32;;;;;;;35.75;18.85;;;1.00;53.70;;;;;;5023893;28;20056;-87
2022/12/15 07:47:59;;;;;;;37.20;18.48;;;0.90;53.70;;;;;;5025075;28;20057;-87
2022/12/15 07:50:28;;;;;;;35.25;17.77;;;0.90;53.80;;;;;;5023465;28;20049;-87
2022/12/15 07:52:55;;;;;;;41.00;19.52;;;0.90;53.80;;;;;;5022165;28;20049;-87
2022/12/15 07:55:23;;;;;;;45.53;21.33;;;0.90;53.80;;;;;;5026034;28;20050;-87
2022/12/15 07:57:52;;;;;;;35.45;19.45;;;0.90;53.80;;;;;;5021586;28;20061;-88
2022/12/15 08:00:20;;;;;;;40.63;20.65;;;0.90;53.70;;;;;;5023493;28;20054;-87
2022/12/15 08:02:47;;;;;;;38.10;20.50;;;0.90;53.80;;;;;;5023381;28;20056;-88
2022/12/15 08:05:14;;;;;;;37.88;19.58;;;0.90;53.80;;;;;;5017242;28;20050;-93
2022/12/15 08:07:43;;;;;;;42.00;20.50;;;0.90;53.90;;;;;;5017278;28;20125;-89
2022/12/15 08:10:10;;;;;;;37.35;18.55;;;0.90;53.90;;;;;;5014698;28;20484;-86
2022/12/15 08:12:38;;;;;;;37.55;20.05;;;0.90;53.90;;;;;;5021126;28;20049;-86
2022/12/15 08:15:06;;;;;;;39.53;19.13;;;0.80;53.80;;;;;;5019402;28;20536;-86
2022/12/15 08:17:33;;;;;;;35.90;18.88;;;0.80;53.70;;;;;;5018466;28;20060;-86
2022/12/15 08:20:01;;;;;;;36.90;18.00;;;0.80;53.70;;;;;;5021098;28;20053;-86
2022/12/15 08:22:28;;;;;;;35.35;18.02;;;0.80;53.70;;;;;;5019444;28;20057;-86
2022/12/15 08:24:57;;;;;;;39.17;19.38;;;0.80;53.70;;;;;;5019123;28;20500;-87
2022/12/15 08:27:26;;;;;;;33.78;17.60;;;0.80;53.70;;;;;;5019589;28;20057;-87
2022/12/15 08:29:53;;;;;;;35.13;18.05;;;0.80;53.70;;;;;;5021437;28;20496;-87
2022/12/15 08:32:21;;;;;;;35.28;18.52;;;0.80;53.70;;;;;;5021877;28;20064;-87
2022/12/15 08:34:49;;;;;;;29.40;16.55;;;0.80;53.80;;;;;;5018518;28;20057;-86
2022/12/15 08:37:16;;;;;;;33.08;18.27;;;0.80;53.80;;;;;;5020557;28;20503;-87
2022/12/15 08:39:43;;;;;;;32.50;17.42;;;0.80;53.80;;;;;;5018728;28;20630;-86
2022/12/15 08:42:12;;;;;;;37.70;19.52;;;0.80;53.80;;;;;;5014627;28;20052;-87
2022/12/15 08:44:39;;;;;;;33.85;18.58;;;0.80;53.80;;;;;;5018805;28;20065;-87
2022/12/15 08:47:07;;;;;;;34.67;18.15;;;0.80;53.80;;;;;;5019004;28;20408;-86
2022/12/15 08:49:34;;;;;;;36.47;19.50;;;0.80;53.80;;;;;;5016103;28;20049;-87
2022/12/15 08:52:03;;;;;;;36.05;19.20;;;0.80;53.80;;;;;;5015790;28;20052;-86
2022/12/15 08:54:31;;;;;;;41.42;19.50;;;0.80;53.80;;;;;;5019037;28;20045;-87
2022/12/15 08:56:58;;;;;;;33.30;18.42;;;0.80;53.90;;;;;;5018481;28;20061;-88
2022/12/15 08:59:27;;;;;;;37.15;19.25;;;0.80;53.80;;;;;;5019260;28;20412;-90
2022/12/15 09:01:54;;;;;;;35.13;19.38;;;0.90;54.30;;;;;;5021579;28;20584;-88
2022/12/15 09:04:21;;;;;;;39.63;19.00;;;0.90;53.90;;;;;;5018234;28;20057;-88
2022/12/15 09:06:49;;;;;;;36.67;20.00;;;0.90;53.90;;;;;;5015530;28;20488;-88
2022/12/15 09:09:17;;;;;;;36.05;19.00;;;0.90;53.90;;;;;;5020465;28;20393;-87
2022/12/15 09:11:44;;;;;;;42.80;21.42;;;0.90;53.90;;;;;;5019840;28;20053;-87
2022/12/15 09:14:11;;;;;;;38.03;19.85;;;0.90;53.90;;;;;;5018797;28;20049;-88
2022/12/15 09:16:40;;;;;;;40.58;21.17;;;0.90;53.90;;;;;;5020390;28;20054;-87
2022/12/15 09:19:09;;;;;;;35.65;18.58;;;0.90;53.80;;;;;;5020221;28;20056;-85
2022/12/15 09:21:36;;;;;;;56.13;24.70;;;0.90;53.70;;;;;;5017573;28;20065;-87
2022/12/15 09:24:04;;;;;;;95.10;35.63;;;0.90;53.70;;;;;;5017726;28;20061;-87
2022/12/15 09:26:33;;;;;;;47.78;22.75;;;0.90;53.70;;;;;;5018743;28;20050;-87
2022/12/15 09:29:01;;;;;;;38.47;18.63;;;0.90;53.70;;;;;;5017858;28;20125;-88
2022/12/15 09:31:31;;;;;;;35.90;17.80;;;0.90;53.70;;;;;;5020529;28;20056;-89
2022/12/15 09:34:01;;;;;;;45.50;22.00;;;0.90;53.80;;;;;;5017745;28;20052;-87
2022/12/15 09:36:29;;;;;;;36.20;18.88;;;0.90;53.70;;;;;;5017622;28;20398;-87
2022/12/15 09:38:57;;;;;;;30.73;18.40;;;0.90;53.60;;;;;;5018230;28;20061;-86
2022/12/15 09:41:26;;;;;;;35.13;19.67;;;0.90;53.60;;;;;;5017992;28;20057;-87
2022/12/15 09:43:57;;;;;;;39.40;19.88;;;0.90;53.60;;;;;;5018763;28;20100;-87
2022/12/15 09:46:34;;;;;;;39.47;19.65;;;0.90;53.60;;;;;;5019546;28;20064;-88
2022/12/15 09:49:11;;;;;;;31.33;18.15;;;0.90;53.60;;;;;;5016849;28;20064;-89
2022/12/15 09:51:45;;;;;;;37.17;19.88;;;0.90;53.60;;;;;;5013993;28;20385;-87
2022/12/15 09:54:12;;;;;;;;;;;0.90;53.60;;;;;;5019090;28;20068;-87
2022/12/15 09:56:42;;;;;;;35.78;19.30;;;1.00;53.70;;;;;;5018418;28;19929;-86
2022/12/15 09:59:24;;;;;;;43.28;22.63;;;1.00;53.60;;;;;;5017076;28;20480;-86
2022/12/15 10:02:06;;;;;;;42.35;21.08;;;1.00;53.60;;;;;;5017699;28;20492;-86
2022/12/15 10:04:43;;;;;;;36.40;19.33;;;1.00;53.60;;;;;;5020962;28;20409;-87
2022/12/15 10:07:18;;;;;;;42.20;20.60;;;1.00;53.60;;;;;;5018647;28;20080;-86
2022/12/15 10:09:45;;;;;;;38.45;19.85;;;1.00;53.60;;;;;;5020718;28;20456;-86
2022/12/15 10:12:18;;;;;;;41.72;19.98;;;1.00;53.60;;;;;;5016962;28;20409;-86
2022/12/15 10:14:51;;;;;;;35.35;19.25;;;0.90;53.50;;;;;;5020797;28;20065;-86
2022/12/15 10:17:24;;;;;;;40.72;21.70;;;1.00;53.60;;;;;;5018777;28;20050;-86
2022/12/15 10:20:01;;;;;;;36.42;20.08;;;1.00;53.60;;;;;;5020143;28;20084;-86
2022/12/15 10:22:33;;;;;;;35.92;19.25;;;1.00;53.60;;;;;;5016810;28;20092;-87
2022/12/15 10:25:07;;;;;;;37.63;20.65;;;1.00;53.60;;;;;;5020047;28;20056;-86
2022/12/15 10:27:58;;;;;;;36.15;19.58;;;1.00;53.60;;;;;;5018825;28;20358;-86
2022/12/15 10:30:26;;;;;;;44.83;21.38;;;1.00;53.60;;;;;;5018863;28;20057;-86
2022/12/15 10:33:02;;;;;;;38.85;20.92;;;1.00;53.60;;;;;;5018397;28;20508;-86
2022/12/15 10:35:33;;;;;;;40.70;21.50;;;1.00;53.60;;;;;;5017293;28;20046;-87
2022/12/15 10:38:03;;;;;;;38.58;21.25;;;1.00;53.60;;;;;;5020169;28;20049;-86
2022/12/15 10:40:47;;;;;;;38.58;21.13;;;1.00;53.60;;;;;;5020151;28;20108;-86
2022/12/15 10:43:23;;;;;;;42.95;21.65;;;1.00;53.50;;;;;;5018595;28;20057;-86
2022/12/15 10:46:01;;;;;;;41.45;21.52;;;1.00;53.60;;;;;;5015429;28;21190;-87
2022/12/15 10:48:28;;;;;;;47.53;22.33;;;1.00;53.60;;;;;;5013019;28;20057;-86
2022/12/15 10:51:14;;;;;;;40.17;21.25;;;1.00;53.60;;;;;;5017696;28;20049;-86
2022/12/15 10:53:45;;;;;;;42.17;20.88;;;1.00;53.50;;;;;;5015734;28;20064;-86
2022/12/15 10:56:20;;;;;;;37.95;20.67;;;1.00;53.50;;;;;;5014640;28;20057;-87
2022/12/15 10:58:50;;;;;;;40.83;20.45;;;1.00;53.40;;;;;;5017539;28;20519;-88
2022/12/15 11:01:22;;;;;;;40.08;21.80;;;1.00;53.40;;;;;;5017526;28;20057;-89
2022/12/15 11:03:51;;;;;;;40.72;20.73;;;1.00;53.40;;;;;;5011248;28;20049;-87
2022/12/15 11:06:22;;;;;;;47.10;23.20;;;1.10;53.40;;;;;;5016117;28;20053;-87
2022/12/15 11:08:51;;;;;;;40.17;21.50;;;1.10;53.30;;;;;;5017414;28;20084;-87
2022/12/15 11:14:16;;;;;;;41.20;21.13;;;1.00;53.20;;;;;;5025569;28;20060;-87
2022/12/15 11:16:47;;;;;;;50.17;24.20;;;1.00;53.20;;;;;;5018998;28;20488;-86
2022/12/15 11:19:21;;;;;;;41.75;22.42;;;1.00;53.00;;;;;;5017764;28;20061;-86
2022/12/15 11:21:53;;;;;;;;;;;1.00;53.00;;;;;;5017611;28;20416;-86
2022/12/15 11:24:29;;;;;;;37.78;19.98;;;1.00;53.00;;;;;;5017943;28;19932;-87
2022/12/15 11:27:01;;;;;;;42.20;22.23;;;1.00;53.00;;;;;;5020080;28;20064;-87
2022/12/15 11:29:38;;;;;;;45.47;22.35;;;1.00;53.00;;;;;;5019459;28;20065;-87
2022/12/15 11:32:06;;;;;;;48.95;23.65;;;1.00;53.00;;;;;;5017896;28;20057;-84
2022/12/15 11:34:37;;;;;;;90.32;35.15;;;1.00;53.00;;;;;;5019661;28;20481;-86
2022/12/15 11:37:26;;;;;;;91.75;34.53;;;0.90;53.00;;;;;;5018625;28;20505;-87
2022/12/15 11:40:12;;;;;;;57.47;25.80;;;0.90;53.50;;;;;;5022091;28;21052;-88
2022/12/15 11:42:55;;;;;;;49.83;24.98;;;0.90;53.00;;;;;;5021588;28;20057;-87
2022/12/15 11:45:27;;;;;;;45.67;22.58;;;0.90;53.00;;;;;;5024434;28;20047;-87
2022/12/15 11:48:05;;;;;;;48.63;24.27;;;0.90;53.00;;;;;;5023843;28;20091;-87
2022/12/15 11:50:41;;;;;;;48.63;23.95;;;0.90;53.00;;;;;;5023525;28;20053;-87
2022/12/15 11:53:42;;;;;;;52.60;24.20;;;0.90;53.10;;;;;;5024776;28;20057;-87
2022/12/15 11:56:22;;;;;;;43.08;22.60;;;0.90;53.10;;;;;;5007725;28;20061;-87
2022/12/15 11:59:10;;;;;;;52.20;24.08;;;0.90;53.10;;;;;;5023948;28;20053;-87
2022/12/15 12:01:54;;;;;;;52.78;24.38;;;0.90;53.10;;;;;;5023685;28;20064;-87
2022/12/15 12:04:25;;;;;;;47.47;23.20;;;0.90;53.20;;;;;;5024402;28;20054;-87
2022/12/15 12:07:07;;;;;;;55.47;24.10;;;0.90;53.20;;;;;;5021895;28;20046;-87
2022/12/15 12:09:39;;;;;;;50.92;24.45;;;0.90;53.20;;;;;;5023243;28;20421;-87
2022/12/15 12:12:18;;;;;;;50.58;25.70;;;0.90;53.20;;;;;;5023607;28;20404;-87
2022/12/15 12:14:53;;;;;;;52.90;25.02;;;0.90;53.20;;;;;;5022637;28;20049;-87
2022/12/15 12:17:30;;;;;;;53.63;24.50;;;0.90;53.20;;;;;;5024235;28;20053;-87
2022/12/15 12:20:00;;;;;;;50.08;24.50;;;0.90;53.20;;;;;;5023633;28;20076;-86
2022/12/15 12:22:32;;;;;;;45.33;23.45;;;0.90;53.20;;;;;;5022707;28;20484;-88
2022/12/15 12:25:05;;;;;;;55.45;26.85;;;0.90;53.20;;;;;;5022200;28;20049;-87
2022/12/15 12:27:38;;;;;;;54.40;26.73;;;0.90;53.20;;;;;;5023607;28;20076;-87
2022/12/15 12:30:11;;;;;;;49.90;25.23;;;0.90;53.20;;;;;;5023666;28;20527;-88
2022/12/15 12:32:47;;;;;;;53.50;26.13;;;0.90;53.10;;;;;;5023908;28;20053;-87
2022/12/15 12:35:18;;;;;;;47.85;25.45;;;0.90;53.10;;;;;;5020219;28;20526;-86
2022/12/15 12:37:51;;;;;;;53.03;25.35;;;0.90;53.10;;;;;;5022895;28;20060;-86
2022/12/15 12:40:27;;;;;;;43.53;22.50;;;0.90;53.10;;;;;;5022132;28;20053;-86
2022/12/15 12:42:57;;;;;;;50.00;24.15;;;0.80;53.10;;;;;;5021046;28;20132;-87
2022/12/15 12:45:29;;;;;;;43.38;22.70;;;0.90;53.20;;;;;;5021570;28;20488;-87
2022/12/15 12:48:01;;;;;;;47.88;23.38;;;0.80;53.20;;;;;;5023038;28;20053;-87
2022/12/15 12:50:30;;;;;;;50.60;24.08;;;0.90;53.30;;;;;;5021641;28;20073;-87
2022/12/15 12:53:00;;;;;;;50.47;24.80;;;0.90;53.30;;;;;;5022308;28;20081;-86
2022/12/15 12:55:37;;;;;;;48.33;24.17;;;0.80;53.30;;;;;;5022613;28;20060;-87
2022/12/15 12:58:37;;;;;;;48.22;25.20;;;0.80;53.30;;;;;;5022469;28;20050;-87
2022/12/15 13:01:17;;;;;;;45.97;23.48;;;0.90;53.40;;;;;;5022642;28;20050;-87
2022/12/15 13:03:45;;;;;;;44.15;23.00;;;0.90;53.40;;;;;;5021731;28;20060;-87
2022/12/15 13:06:42;;;;;;;42.67;22.15;;;0.90;53.40;;;;;;5022029;28;20428;-87
2022/12/15 13:09:22;;;;;;;43.17;21.15;;;0.90;53.40;;;;;;5022122;28;20053;-87
2022/12/15 13:12:00;;;;;;;39.83;20.85;;;0.90;53.40;;;;;;5021494;28;20072;-87
2022/12/15 13:14:45;;;;;;;40.60;21.02;;;0.90;53.40;;;;;;5023359;28;20054;-87
2022/12/15 13:17:19;;;;;;;41.00;21.30;;;0.90;53.40;;;;;;5021289;28;20405;-86
2022/12/15 13:20:29;;;;;;;36.65;19.80;;;0.90;53.40;;;;;;5023539;28;20053;-87
2022/12/15 13:23:34;;;;;;;39.28;19.70;;;0.90;53.40;;;;;;5021996;28;20057;-87
2022/12/15 13:26:18;;;;;;;42.78;21.25;;;0.90;53.40;;;;;;5021834;28;20053;-87
2022/12/15 13:28:50;;;;;;;41.80;21.17;;;0.90;53.40;;;;;;5023407;28;20503;-87
2022/12/15 13:31:28;;;;;;;38.55;20.80;;;0.90;53.40;;;;;;5021383;28;20061;-87
2022/12/15 13:34:12;;;;;;;41.53;21.20;;;1.00;53.40;;;;;;5021525;28;20061;-87
2022/12/15 13:36:51;;;;;;;36.38;19.52;;;1.00;53.40;;;;;;5017595;28;20500;-86
2022/12/15 13:39:54;;;;;;;38.85;20.67;;;1.00;53.40;;;;;;5022287;28;20057;-86
2022/12/15 13:42:42;;;;;;;37.60;19.98;;;1.00;53.40;;;;;;5020602;28;20045;-86
2022/12/15 13:45:41;;;;;;;38.88;20.27;;;1.00;53.40;;;;;;5018736;28;20050;-87
2022/12/15 13:48:20;;;;;;;39.70;20.15;;;1.00;53.40;;;;;;5018102;28;20068;-87
2022/12/15 13:50:55;;;;;;;37.15;19.35;;;1.00;53.40;;;;;;5021044;28;20072;-87
2022/12/15 13:53:25;;;;;;;39.83;19.55;;;1.00;53.40;;;;;;5019588;28;20053;-88
2022/12/15 13:56:00;;;;;;;37.72;19.85;;;1.00;53.40;;;;;;5021159;28;20053;-88
2022/12/15 13:58:33;;;;;;;37.47;18.90;;;1.00;53.40;;;;;;5022136;28;20398;-87
2022/12/15 14:01:03;;;;;;;40.03;19.73;;;1.00;53.40;;;;;;5021532;28;20061;-88
2022/12/15 14:03:31;;;;;;;38.92;19.48;;;1.10;53.40;;;;;;5018659;28;20068;-88
2022/12/15 14:05:59;;;;;;;36.33;19.85;;;1.00;53.40;;;;;;5017174;28;20057;-87
2022/12/15 14:08:30;;;;;;;36.30;19.33;;;1.10;53.40;;;;;;5018787;28;20060;-87
2022/12/15 14:10:59;;;;;;;38.90;19.88;;;1.10;53.40;;;;;;5019326;28;20057;-87
2022/12/15 14:13:29;;;;;;;37.20;20.02;;;1.10;53.40;;;;;;5017705;28;20386;-88
2022/12/15 14:16:01;;;;;;;36.88;19.55;;;1.10;53.40;;;;;;5018159;28;20408;-88
2022/12/15 14:18:32;;;;;;;34.05;18.63;;;1.10;53.40;;;;;;5019748;28;20064;-90
2022/12/15 14:21:00;;;;;;;37.10;19.00;;;1.10;53.30;;;;;;5016745;28;20053;-87
2022/12/15 14:23:30;;;;;;;40.10;20.15;;;1.10;53.30;;;;;;5019702;28;20057;-88
2022/12/15 14:26:03;;;;;;;35.53;18.60;;;1.10;53.30;;;;;;5016728;28;20049;-89
2022/12/15 14:28:59;;;;;;;43.88;21.80;;;1.10;53.20;;;;;;5015525;28;20058;-91
2022/12/15 14:31:27;;;;;;;43.97;21.35;;;1.10;53.20;;;;;;5016793;28;20053;-89
2022/12/15 14:34:02;;;;;;;45.60;22.58;;;1.10;53.00;;;;;;5018257;28;20056;-89
2022/12/15 14:36:31;;;;;;;39.17;20.17;;;1.10;53.50;;;;;;5018281;28;20045;-89
2022/12/15 14:39:00;;;;;;;37.72;20.70;;;1.00;53.00;;;;;;5014682;28;20049;-90
2022/12/15 14:41:31;;;;;;;37.10;20.40;;;1.00;53.00;;;;;;5013423;28;20053;-90
2022/12/15 14:44:03;;;;;;;35.30;19.60;;;1.00;53.00;;;;;;5017188;28;20045;-86
2022/12/15 14:46:31;;;;;;;37.25;19.85;;;1.00;53.10;;;;;;5014861;28;20064;-87
2022/12/15 14:49:02;;;;;;;39.83;20.23;;;1.00;53.10;;;;;;5017631;28;20053;-89
2022/12/15 14:51:38;;;;;;;41.88;21.08;;;1.00;53.10;;;;;;5013951;28;20064;-89
2022/12/15 14:54:07;;;;;;;54.33;25.58;;;1.00;53.00;;;;;;5020457;28;20444;-85
2022/12/15 14:56:36;;;;;;;45.15;22.33;;;1.00;53.00;;;;;;5018344;28;20505;-91
2022/12/15 14:59:17;;;;;;;40.45;21.15;;;1.00;53.00;;;;;;5017640;28;20053;-87
2022/12/15 15:01:52;;;;;;;42.42;21.13;;;1.00;52.90;;;;;;5018140;28;20062;-86
2022/12/15 15:04:27;;;;;;;47.60;22.08;;;1.00;52.90;;;;;;5019096;28;20421;-89
2022/12/15 15:06:57;;;;;;;42.50;21.27;;;1.00;52.80;;;;;;5009610;28;20054;-88
2022/12/15 15:09:27;;;;;;;37.92;19.95;;;1.00;52.80;;;;;;5014525;28;20176;-87
2022/12/15 15:11:59;;;;;;;36.30;18.50;;;1.00;52.80;;;;;;5019256;28;20057;-87
2022/12/15 15:14:29;;;;;;;42.40;21.55;;;0.90;52.70;;;;;;5016776;28;20421;-88
2022/12/15 15:17:04;;;;;;;43.03;22.05;;;1.00;52.80;;;;;;5021116;28;20046;-87
2022/12/15 15:19:36;;;;;;;38.65;20.35;;;0.90;52.70;;;;;;5020783;28;20053;-87
2022/12/15 15:22:04;;;;;;;48.00;23.85;;;0.90;52.70;;;;;;5016947;28;20065;-88
2022/12/15 15:24:35;;;;;;;47.00;22.48;;;0.90;52.70;;;;;;5017712;28;20497;-88
2022/12/15 15:27:41;;;;;;;50.33;25.00;;;0.90;52.70;;;;;;5021493;28;20056;-85